Terminal Aerodrome Forecast
Issued by NWS

Home | Current Version | Previous Version | Text Only | Print | Product List | Glossary Off
Versions: 1 2 3 4 5 6 7 8 9 10 11 12 13 14 15

000
FTUS45 KGGW 212321
TAFGDV
TAF
KGDV 212321Z 2200/2224 32010G20KT P6SM FEW120
     FM220200 35006KT P6SM SCT110
     FM221700 29019G27KT P6SM FEW100
     FM222300 31025G37KT P6SM BKN080=

USA.gov is the U.S. government's official web portal to all federal, state and local government web resources and services.